^^
Datos históricos de la estación: Murcia-Puente Tocinos
Diario Informe para Noviembre 09, 2018 Unidades:  Ambas    Inglés   Métrico
Diario Semanal Mensual Anual Configurable
  Máximo: Mínimo: Media:
Temperatura: 65.1 °F /  18.4 °C 52.9 °F /  11.6 °C 59.4 °F /  15.2 °C
Punto de rocio: 56.5 °F /  13.6 °C 37 °F /  2.8 °C 42.3 °F /  5.7 °C
Humedad: 91% 37% 55%
Velocidad viento: 14.7mph /  23.7km/h - 7.5mph /  12km/h
Racha viento: 26.5mph /  42.6km/h - -
Viento- - WSW
Presión: 30.1 in /  1018.3 hPa 29.9 in /  1012.6 hPa -
Precipitación: 0.02 in /  0.5 mm    
Historical Graphs
 
 
Tabla de datos para Noviembre 09, 2018
Hora Temperatura Punto de rocio Presión Viento Velocidad viento Racha viento Humedad Intensidad lluvia(por hora) Nubes
00:00 60.1 °F /  15.6 °C 56.1 °F /  13.4 °C 29.9in /  1013.0hPa NE 5mph /  8.0km/h 9mph /  14.5km/h 87% 0in /  0.0mm RA
00:05 59.9 °F /  15.5 °C 55.9 °F /  13.3 °C 29.9in /  1012.6hPa ENE 4.7mph /  7.6km/h 6.9mph /  11.1km/h 87% 0in /  0.0mm RA
00:10 59.9 °F /  15.5 °C 55.9 °F /  13.3 °C 29.9in /  1012.6hPa North 4.7mph /  7.6km/h 5.8mph /  9.3km/h 87% 0in /  0.0mm BKN
00:15 59.7 °F /  15.4 °C 56.1 °F /  13.4 °C 29.9in /  1012.6hPa WNW 4.7mph /  7.6km/h 8.1mph /  13.0km/h 88% 0in /  0.0mm BKN
00:20 59.5 °F /  15.3 °C 56.3 °F /  13.5 °C 29.9in /  1012.9hPa WNW 4.7mph /  7.6km/h 3.6mph /  5.8km/h 89% 0in /  0.0mm -RA
00:25 59.5 °F /  15.3 °C 56.3 °F /  13.5 °C 29.9in /  1012.9hPa WNW 5mph /  8.0km/h 4mph /  6.4km/h 89% 0in /  0.0mm -RA
00:29 59.5 °F /  15.3 °C 56.3 °F /  13.5 °C 29.9in /  1012.9hPa WNW 2.4mph /  3.9km/h 3.5mph /  5.6km/h 89% 0in /  0.0mm -RA
00:35 59.7 °F /  15.4 °C 56.5 °F /  13.6 °C 29.9in /  1013.1hPa South 2.4mph /  3.9km/h 4.6mph /  7.4km/h 89% 0in /  0.0mm -RA
00:39 59.7 °F /  15.4 °C 56.5 °F /  13.6 °C 29.9in /  1013.1hPa SE 2.9mph /  4.7km/h 5.8mph /  9.3km/h 89% 0in /  0.0mm -RA
00:45 59.5 °F /  15.3 °C 56.3 °F /  13.5 °C 29.9in /  1013.1hPa SE 2.9mph /  4.7km/h 4.6mph /  7.4km/h 89% 0in /  0.0mm -RA
00:50 59.4 °F /  15.2 °C 56.5 °F /  13.6 °C 29.9in /  1013.1hPa SE 4mph /  6.4km/h 4.6mph /  7.4km/h 90% 0.01in /  0.3mm FEW
00:55 59.2 °F /  15.1 °C 56.1 °F /  13.4 °C 29.9in /  1013.1hPa SE 4mph /  6.4km/h 5.8mph /  9.3km/h 90% 0in /  0.0mm -RA
00:59 59 °F /  15.0 °C 56.1 °F /  13.4 °C 29.9in /  1013.1hPa SE 4mph /  6.4km/h 5.8mph /  9.3km/h 90% 0in /  0.0mm -RA
01:05 59 °F /  15.0 °C 56.1 °F /  13.4 °C 29.9in /  1013.3hPa SE 4mph /  6.4km/h 6.9mph /  11.1km/h 90% 0in /  0.0mm -RA
01:10 59 °F /  15.0 °C 56.1 °F /  13.4 °C 29.9in /  1013.3hPa SSE 4.3mph /  6.9km/h 6.9mph /  11.1km/h 90% 0in /  0.0mm FEW
01:15 58.8 °F /  14.9 °C 56.1 °F /  13.4 °C 29.9in /  1013.3hPa SSE 4.3mph /  6.9km/h 6.9mph /  11.1km/h 91% 0in /  0.0mm -RA
01:19 58.8 °F /  14.9 °C 55.9 °F /  13.3 °C 29.9in /  1013.2hPa South 4.7mph /  7.6km/h 6.9mph /  11.1km/h 90% 0in /  0.0mm -RA
01:25 59 °F /  15.0 °C 56.1 °F /  13.4 °C 29.9in /  1013.2hPa South 4.7mph /  7.6km/h 5.8mph /  9.3km/h 90% 0in /  0.0mm -RA
01:30 59 °F /  15.0 °C 56.1 °F /  13.4 °C 29.9in /  1013.2hPa South 5mph /  8.0km/h 6mph /  9.7km/h 90% 0in /  0.0mm -RA
01:35 59 °F /  15.0 °C 56.1 °F /  13.4 °C 29.9in /  1013.3hPa South 4.3mph /  6.9km/h 5.8mph /  9.3km/h 90% 0in /  0.0mm -RA
01:40 58.8 °F /  14.9 °C 55.9 °F /  13.3 °C 29.9in /  1013.3hPa SSW 4mph /  6.4km/h 4.7mph /  7.6km/h 90% 0in /  0.0mm -RA
01:45 58.8 °F /  14.9 °C 55.9 °F /  13.3 °C 29.9in /  1013.3hPa SW 4mph /  6.4km/h 5.8mph /  9.3km/h 90% 0in /  0.0mm -RA
01:50 58.8 °F /  14.9 °C 55.9 °F /  13.3 °C 29.9in /  1013.8hPa WSW 4mph /  6.4km/h 5.8mph /  9.3km/h 90% 0in /  0.0mm FEW
01:55 58.8 °F /  14.9 °C 55.9 °F /  13.3 °C 29.9in /  1013.8hPa WSW 4mph /  6.4km/h 4.6mph /  7.4km/h 90% 0in /  0.0mm -RA
01:59 58.8 °F /  14.9 °C 55.9 °F /  13.3 °C 29.9in /  1013.8hPa WSW 4mph /  6.4km/h 5.8mph /  9.3km/h 90% 0in /  0.0mm -RA
02:05 58.8 °F /  14.9 °C 55.9 °F /  13.3 °C 30in /  1014.2hPa WNW 4mph /  6.4km/h 6.9mph /  11.1km/h 90% 0in /  0.0mm -RA
02:10 59 °F /  15.0 °C 56.1 °F /  13.4 °C 30in /  1014.2hPa WNW 4mph /  6.4km/h 6.9mph /  11.1km/h 90% 0in /  0.0mm FEW
02:15 59 °F /  15.0 °C 55.8 °F /  13.2 °C 30in /  1014.2hPa WNW 4mph /  6.4km/h 8.1mph /  13.0km/h 89% 0in /  0.0mm -RA
02:20 58.8 °F /  14.9 °C 54.7 °F /  12.6 °C 30in /  1014.3hPa WNW 5.9mph /  9.5km/h 18.4mph /  29.6km/h 86% 0in /  0.0mm FEW
02:25 59.2 °F /  15.1 °C 53.4 °F /  11.9 °C 30in /  1014.3hPa West 5.9mph /  9.5km/h 13.8mph /  22.2km/h 81% 0in /  0.0mm FEW
02:30 59.2 °F /  15.1 °C 51.6 °F /  10.9 °C 30in /  1014.3hPa WNW 9.7mph /  15.6km/h 17.3mph /  27.8km/h 76% 0in /  0.0mm FEW
02:35 59.2 °F /  15.1 °C 51.3 °F /  10.7 °C 30in /  1015.0hPa WNW 9.7mph /  15.6km/h 26.5mph /  42.6km/h 75% 0.01in /  0.3mm RA
02:40 58.8 °F /  14.9 °C 50.9 °F /  10.5 °C 30in /  1015.0hPa NW 14.7mph /  23.7km/h 26.5mph /  42.6km/h 75% 0.01in /  0.3mm RA
02:45 57.9 °F /  14.4 °C 51.1 °F /  10.6 °C 30in /  1015.0hPa WNW 14.7mph /  23.7km/h 13.8mph /  22.2km/h 78% 0.01in /  0.3mm OVC
02:50 57.4 °F /  14.1 °C 51.6 °F /  10.9 °C 30in /  1015.1hPa West 13.7mph /  22.0km/h 8.1mph /  13.0km/h 81% 0.01in /  0.3mm BKN
02:55 56.8 °F /  13.8 °C 51.4 °F /  10.8 °C 30in /  1015.1hPa NW 13.7mph /  22.0km/h 6.9mph /  11.1km/h 82% 0.01in /  0.3mm OVC
02:59 56.7 °F /  13.7 °C 51.3 °F /  10.7 °C 30in /  1015.1hPa WNW 5.9mph /  9.5km/h 5.8mph /  9.3km/h 82% 0.01in /  0.3mm OVC
03:04 56.5 °F /  13.6 °C 51.4 °F /  10.8 °C 30in /  1014.7hPa WNW 5.9mph /  9.5km/h 3.1mph /  5.0km/h 83% 0.01in /  0.3mm OVC
03:10 56.7 °F /  13.7 °C 51.6 °F /  10.9 °C 30in /  1014.7hPa SE 2.4mph /  3.9km/h 6.9mph /  11.1km/h 83% 0.01in /  0.3mm BKN
03:15 56.7 °F /  13.7 °C 50.9 °F /  10.5 °C 30in /  1014.7hPa SSW 2.4mph /  3.9km/h 11.5mph /  18.5km/h 81% 0.01in /  0.3mm OVC
03:20 56.5 °F /  13.6 °C 50.4 °F /  10.2 °C 30in /  1014.7hPa SSW 5.4mph /  8.7km/h 8.1mph /  13.0km/h 80% 0.01in /  0.3mm BKN
03:25 56.1 °F /  13.4 °C 50 °F /  10.0 °C 30in /  1014.7hPa SSW 5.4mph /  8.7km/h 6.9mph /  11.1km/h 80% 0.01in /  0.3mm OVC
03:30 56.1 °F /  13.4 °C 50.4 °F /  10.2 °C 30in /  1014.7hPa SSW 5.9mph /  9.5km/h 4.6mph /  7.4km/h 81% 0.01in /  0.3mm BKN
03:35 56.1 °F /  13.4 °C 50.4 °F /  10.2 °C 30in /  1014.5hPa SSW 6mph /  9.7km/h 5mph /  8.0km/h 81% 0in /  0.0mm BKN
03:40 56.1 °F /  13.4 °C 50.4 °F /  10.2 °C 30in /  1014.5hPa WSW 3.1mph /  5.0km/h 5.8mph /  9.3km/h 81% 0in /  0.0mm BKN
03:45 56.1 °F /  13.4 °C 50.4 °F /  10.2 °C 30in /  1014.5hPa West 3.1mph /  5.0km/h 4mph /  6.4km/h 81% 0in /  0.0mm OVC
03:50 56.1 °F /  13.4 °C 50 °F /  10.0 °C 30in /  1014.5hPa WNW 4mph /  6.4km/h 4.6mph /  7.4km/h 80% 0in /  0.0mm FEW
03:55 56.1 °F /  13.4 °C 50.4 °F /  10.2 °C 30in /  1014.5hPa WSW 4mph /  6.4km/h 5.2mph /  8.4km/h 81% 0in /  0.0mm CLR
03:59 55.9 °F /  13.3 °C 49.8 °F /  9.9 °C 30in /  1014.5hPa SSW 2.9mph /  4.7km/h 5.8mph /  9.3km/h 80% 0in /  0.0mm CLR
04:05 55.9 °F /  13.3 °C 50.2 °F /  10.1 °C 30in /  1014.5hPa West 2.9mph /  4.7km/h 4.6mph /  7.4km/h 81% 0in /  0.0mm CLR
04:10 55.8 °F /  13.2 °C 50.4 °F /  10.2 °C 30in /  1014.5hPa West 3.1mph /  5.0km/h 3.5mph /  5.6km/h 82% 0in /  0.0mm FEW
04:15 55.8 °F /  13.2 °C 50.4 °F /  10.2 °C 30in /  1014.5hPa West 3.1mph /  5.0km/h 4.7mph /  7.6km/h 82% 0in /  0.0mm CLR
04:20 55.8 °F /  13.2 °C 50.7 °F /  10.4 °C 30in /  1014.8hPa West 2.9mph /  4.7km/h 3.5mph /  5.6km/h 83% 0in /  0.0mm -RA
04:25 55.6 °F /  13.1 °C 50.5 °F /  10.3 °C 30in /  1014.8hPa NE 2.9mph /  4.7km/h 5.8mph /  9.3km/h 83% 0in /  0.0mm BKN
04:30 55.4 °F /  13.0 °C 50.4 °F /  10.2 °C 30in /  1014.8hPa West 2.9mph /  4.7km/h 4.6mph /  7.4km/h 83% 0in /  0.0mm -RA
04:35 55.2 °F /  12.9 °C 49.8 °F /  9.9 °C 30in /  1014.6hPa SW 2.9mph /  4.7km/h 8.1mph /  13.0km/h 82% 0in /  0.0mm BKN
04:40 55.2 °F /  12.9 °C 49.8 °F /  9.9 °C 30in /  1014.6hPa WSW 3.1mph /  5.0km/h 5.8mph /  9.3km/h 82% 0in /  0.0mm -RA
04:45 55.2 °F /  12.9 °C 49.3 °F /  9.6 °C 30in /  1014.6hPa SW 3.1mph /  5.0km/h 9.2mph /  14.8km/h 80% 0in /  0.0mm BKN
04:50 55.4 °F /  13.0 °C 48.9 °F /  9.4 °C 30in /  1015.0hPa WSW 4.7mph /  7.6km/h 8.1mph /  13.0km/h 79% 0in /  0.0mm FEW
04:55 55.6 °F /  13.1 °C 48.6 °F /  9.2 °C 30in /  1015.0hPa WNW 4.7mph /  7.6km/h 9.2mph /  14.8km/h 77% 0in /  0.0mm BKN
04:59 55.6 °F /  13.1 °C 47.8 °F /  8.8 °C 30in /  1015.0hPa West 5.2mph /  8.4km/h 13.8mph /  22.2km/h 75% 0in /  0.0mm BKN
05:05 55.6 °F /  13.1 °C 47.5 °F /  8.6 °C 30in /  1015.0hPa West 5.2mph /  8.4km/h 11.5mph /  18.5km/h 74% 0in /  0.0mm BKN
05:10 55.2 °F /  12.9 °C 46.6 °F /  8.1 °C 30in /  1015.0hPa West 7mph /  11.3km/h 12mph /  19.3km/h 72% 0in /  0.0mm FEW
05:15 55.2 °F /  12.9 °C 46 °F /  7.8 °C 30in /  1015.0hPa WNW 6.4mph /  10.3km/h 5.8mph /  9.3km/h 71% 0.01in /  0.3mm RA
05:20 55 °F /  12.8 °C 45.3 °F /  7.4 °C 30in /  1015.2hPa NW 4.3mph /  6.9km/h 5.8mph /  9.3km/h 70% 0.01in /  0.3mm RA
05:25 54.9 °F /  12.7 °C 45 °F /  7.2 °C 30in /  1015.2hPa NW 4.3mph /  6.9km/h 4.6mph /  7.4km/h 69% 0.01in /  0.3mm BKN
05:30 54.7 °F /  12.6 °C 44.8 °F /  7.1 °C 30in /  1015.2hPa NW 3.1mph /  5.0km/h 5.8mph /  9.3km/h 69% 0.01in /  0.3mm FEW
05:35 54.5 °F /  12.5 °C 43.9 °F /  6.6 °C 30in /  1015.3hPa NW 3.1mph /  5.0km/h 9.2mph /  14.8km/h 67% 0.01in /  0.3mm BKN
05:40 54.5 °F /  12.5 °C 43.9 °F /  6.6 °C 30in /  1015.3hPa West 4mph /  6.4km/h 5.9mph /  9.5km/h 67% 0.01in /  0.3mm FEW
05:45 54.7 °F /  12.6 °C 43.2 °F /  6.2 °C 30in /  1015.3hPa WSW 4mph /  6.4km/h 9.7mph /  15.6km/h 65% 0.01in /  0.3mm BKN
05:50 54.9 °F /  12.7 °C 43 °F /  6.1 °C 30in /  1015.2hPa SW 5.2mph /  8.4km/h 6.9mph /  11.1km/h 64% 0.01in /  0.3mm FEW
05:55 54.7 °F /  12.6 °C 42.6 °F /  5.9 °C 30in /  1015.2hPa WNW 5.2mph /  8.4km/h 9.2mph /  14.8km/h 64% 0.01in /  0.3mm BKN
06:00 54.7 °F /  12.6 °C 42.4 °F /  5.8 °C 30in /  1015.2hPa West 6mph /  9.7km/h 14mph /  22.5km/h 63% 0in /  0.0mm BKN
06:04 54.9 °F /  12.7 °C 42.1 °F /  5.6 °C 30in /  1015.5hPa WNW 5.4mph /  8.7km/h 17.3mph /  27.8km/h 62% 0.01in /  0.3mm BKN
06:10 54.9 °F /  12.7 °C 41.7 °F /  5.4 °C 30in /  1015.5hPa West 7.6mph /  12.2km/h 9.2mph /  14.8km/h 61% 0.01in /  0.3mm FEW
06:15 54.9 °F /  12.7 °C 41.7 °F /  5.4 °C 30in /  1015.5hPa WNW 7.6mph /  12.2km/h 8.1mph /  13.0km/h 61% 0in /  0.0mm BKN
06:20 54.9 °F /  12.7 °C 41.7 °F /  5.4 °C 30in /  1015.6hPa WNW 5.4mph /  8.7km/h 8.1mph /  13.0km/h 61% 0in /  0.0mm FEW
06:25 54.7 °F /  12.6 °C 41.5 °F /  5.3 °C 30in /  1015.6hPa WNW 5.4mph /  8.7km/h 5.8mph /  9.3km/h 61% 0in /  0.0mm BKN
06:30 54.7 °F /  12.6 °C 41.9 °F /  5.5 °C 30in /  1015.6hPa WSW 4mph /  6.4km/h 4.6mph /  7.4km/h 62% 0in /  0.0mm FEW
06:35 54.7 °F /  12.6 °C 41.5 °F /  5.3 °C 30in /  1015.7hPa SW 4mph /  6.4km/h 6.9mph /  11.1km/h 61% 0in /  0.0mm BKN
06:40 54.7 °F /  12.6 °C 41.9 °F /  5.5 °C 30in /  1015.7hPa SW 4.3mph /  6.9km/h 8.1mph /  13.0km/h 62% 0in /  0.0mm FEW
06:45 54.7 °F /  12.6 °C 42.3 °F /  5.7 °C 30in /  1015.7hPa SW 4.3mph /  6.9km/h 8.1mph /  13.0km/h 63% 0in /  0.0mm BKN
06:50 54.3 °F /  12.4 °C 42.4 °F /  5.8 °C 30in /  1015.9hPa SW 5.4mph /  8.7km/h 9.2mph /  14.8km/h 64% 0in /  0.0mm FEW
06:55 54.1 °F /  12.3 °C 42.3 °F /  5.7 °C 30in /  1015.9hPa SSW 5.4mph /  8.7km/h 10.4mph /  16.7km/h 64% 0in /  0.0mm BKN
06:59 54.1 °F /  12.3 °C 42.6 °F /  5.9 °C 30in /  1015.9hPa SSW 6.4mph /  10.3km/h 9.2mph /  14.8km/h 65% 0in /  0.0mm BKN
07:05 54 °F /  12.2 °C 42.4 °F /  5.8 °C 30in /  1015.7hPa SW 6.4mph /  10.3km/h 13.8mph /  22.2km/h 65% 0in /  0.0mm FEW
07:10 53.8 °F /  12.1 °C 42.3 °F /  5.7 °C 30in /  1015.7hPa SW 6.4mph /  10.3km/h 9.2mph /  14.8km/h 65% 0in /  0.0mm FEW
07:15 53.4 °F /  11.9 °C 41.9 °F /  5.5 °C 30in /  1015.7hPa SSW 6.4mph /  10.3km/h 10.4mph /  16.7km/h 65% 0in /  0.0mm BKN
07:20 53.4 °F /  11.9 °C 41.9 °F /  5.5 °C 30in /  1015.8hPa SW 6.9mph /  11.1km/h 10.4mph /  16.7km/h 65% 0in /  0.0mm FEW
07:25 53.2 °F /  11.8 °C 42.3 °F /  5.7 °C 30in /  1015.8hPa SW 6.9mph /  11.1km/h 7.4mph /  11.9km/h 66% 0in /  0.0mm BKN
07:30 53.1 °F /  11.7 °C 41.5 °F /  5.3 °C 30in /  1015.8hPa South 5.9mph /  9.5km/h 10.4mph /  16.7km/h 65% 0in /  0.0mm FEW
07:35 53.1 °F /  11.7 °C 41.5 °F /  5.3 °C 30in /  1016.0hPa SW 6mph /  9.7km/h 10mph /  16.1km/h 65% 0in /  0.0mm FEW
07:40 52.9 °F /  11.6 °C 41.4 °F /  5.2 °C 30in /  1016.0hPa SW 5.9mph /  9.5km/h 9.2mph /  14.8km/h 65% 0in /  0.0mm FEW
07:45 53.1 °F /  11.7 °C 41.2 °F /  5.1 °C 30in /  1016.0hPa SSW 5.9mph /  9.5km/h 15mph /  24.1km/h 64% 0in /  0.0mm BKN
07:50 53.1 °F /  11.7 °C 40.8 °F /  4.9 °C 30in /  1016.3hPa WSW 6.2mph /  10.0km/h 6.9mph /  11.1km/h 63% 0in /  0.0mm FEW
07:55 53.1 °F /  11.7 °C 40.8 °F /  4.9 °C 30in /  1016.3hPa SW 6.2mph /  10.0km/h 6.9mph /  11.1km/h 63% 0in /  0.0mm BKN
08:00 53.2 °F /  11.8 °C 40.5 °F /  4.7 °C 30in /  1016.3hPa SW 5mph /  8.0km/h 10mph /  16.1km/h 62% 0in /  0.0mm BKN
08:05 53.4 °F /  11.9 °C 40.3 °F /  4.6 °C 30in /  1016.7hPa SSW 5.2mph /  8.4km/h 8.1mph /  13.0km/h 61% 0in /  0.0mm FEW
08:10 53.6 °F /  12.0 °C 40.5 °F /  4.7 °C 30in /  1016.7hPa SW 5.4mph /  8.7km/h 6.9mph /  11.1km/h 61% 0in /  0.0mm FEW
08:15 53.8 °F /  12.1 °C 40.3 °F /  4.6 °C 30in /  1016.7hPa SSW 5.4mph /  8.7km/h 6.9mph /  11.1km/h 60% 0in /  0.0mm BKN
08:20 54 °F /  12.2 °C 40.5 °F /  4.7 °C 30in /  1016.9hPa SSW 5.2mph /  8.4km/h 8.1mph /  13.0km/h 60% 0in /  0.0mm FEW
08:25 54.1 °F /  12.3 °C 40.6 °F /  4.8 °C 30in /  1016.9hPa WSW 5.2mph /  8.4km/h 13.8mph /  22.2km/h 60% 0in /  0.0mm BKN
08:30 54.1 °F /  12.3 °C 40.1 °F /  4.5 °C 30in /  1016.9hPa SSW 6.4mph /  10.3km/h 13.8mph /  22.2km/h 59% 0in /  0.0mm FEW
08:35 54.1 °F /  12.3 °C 40.3 °F /  4.6 °C 30in /  1016.8hPa SSW 7mph /  11.3km/h 15mph /  24.1km/h 59% 0in /  0.0mm FEW
08:40 54.5 °F /  12.5 °C 39.9 °F /  4.4 °C 30in /  1016.8hPa SSW 8.7mph /  14.0km/h 16.1mph /  25.9km/h 58% 0in /  0.0mm FEW
08:45 54.9 °F /  12.7 °C 40.5 °F /  4.7 °C 30in /  1016.8hPa South 8.7mph /  14.0km/h 16.1mph /  25.9km/h 58% 0in /  0.0mm BKN
08:50 54.9 °F /  12.7 °C 40.5 °F /  4.7 °C 30in /  1016.7hPa SSW 10.7mph /  17.2km/h 13.8mph /  22.2km/h 58% 0in /  0.0mm FEW
08:55 55 °F /  12.8 °C 40.5 °F /  4.7 °C 30in /  1016.7hPa SSW 10.7mph /  17.2km/h 13.8mph /  22.2km/h 58% 0in /  0.0mm BKN
08:59 55.2 °F /  12.9 °C 40.6 °F /  4.8 °C 30in /  1016.7hPa SW 9.7mph /  15.6km/h 11.5mph /  18.5km/h 58% 0in /  0.0mm BKN
09:05 55.2 °F /  12.9 °C 40.6 °F /  4.8 °C 30in /  1016.9hPa WSW 9.7mph /  15.6km/h 9.7mph /  15.6km/h 58% 0in /  0.0mm BKN
09:10 55.4 °F /  13.0 °C 40.8 °F /  4.9 °C 30in /  1016.9hPa SSW 6.9mph /  11.1km/h 15mph /  24.1km/h 58% 0in /  0.0mm FEW
09:15 55.6 °F /  13.1 °C 41 °F /  5.0 °C 30in /  1016.9hPa SSW 6.9mph /  11.1km/h 8.1mph /  13.0km/h 58% 0in /  0.0mm BKN
09:20 55.8 °F /  13.2 °C 41.2 °F /  5.1 °C 30in /  1017.0hPa SW 7.4mph /  11.9km/h 6.9mph /  11.1km/h 58% 0in /  0.0mm FEW
09:25 55.8 °F /  13.2 °C 41.2 °F /  5.1 °C 30in /  1017.0hPa SSW 7.4mph /  11.9km/h 9.2mph /  14.8km/h 58% 0in /  0.0mm BKN
09:30 55.9 °F /  13.3 °C 40.8 °F /  4.9 °C 30in /  1017.0hPa SW 6.2mph /  10.0km/h 9.2mph /  14.8km/h 57% 0in /  0.0mm FEW
09:35 56.1 °F /  13.4 °C 41.2 °F /  5.1 °C 30in /  1017.3hPa SW 6mph /  9.7km/h 10mph /  16.1km/h 57% 0in /  0.0mm FEW
09:40 56.5 °F /  13.6 °C 41.4 °F /  5.2 °C 30in /  1017.3hPa SSW 5.4mph /  8.7km/h 4.6mph /  7.4km/h 57% 0in /  0.0mm FEW
09:45 57 °F /  13.9 °C 41.5 °F /  5.3 °C 30in /  1017.3hPa SSW 5.4mph /  8.7km/h 8.1mph /  13.0km/h 56% 0in /  0.0mm BKN
09:50 57.6 °F /  14.2 °C 40.1 °F /  4.5 °C 30.1in /  1017.5hPa WSW 4.3mph /  6.9km/h 18.4mph /  29.6km/h 52% 0in /  0.0mm FEW
09:55 58.1 °F /  14.5 °C 39.6 °F /  4.2 °C 30.1in /  1017.5hPa WSW 4.3mph /  6.9km/h 23mph /  37.0km/h 50% 0in /  0.0mm BKN
09:59 58.5 °F /  14.7 °C 39.4 °F /  4.1 °C 30.1in /  1017.5hPa SSW 8.7mph /  14.0km/h 16.1mph /  25.9km/h 49% 0in /  0.0mm BKN
10:05 58.6 °F /  14.8 °C 39.6 °F /  4.2 °C 30.1in /  1017.5hPa West 8.7mph /  14.0km/h 18.4mph /  29.6km/h 49% 0in /  0.0mm BKN
10:10 58.6 °F /  14.8 °C 39.6 °F /  4.2 °C 30.1in /  1017.5hPa WSW 10.2mph /  16.4km/h 12.7mph /  20.4km/h 49% 0in /  0.0mm FEW
10:15 58.6 °F /  14.8 °C 39.6 °F /  4.2 °C 30.1in /  1017.5hPa SW 10.2mph /  16.4km/h 15mph /  24.1km/h 49% 0in /  0.0mm SCT
10:20 58.6 °F /  14.8 °C 39 °F /  3.9 °C 30.1in /  1017.5hPa WSW 10mph /  16.1km/h 20.7mph /  33.3km/h 48% 0in /  0.0mm SCT
10:25 58.6 °F /  14.8 °C 39 °F /  3.9 °C 30.1in /  1017.5hPa SW 10mph /  16.1km/h 21.9mph /  35.2km/h 48% 0in /  0.0mm SCT
10:30 58.8 °F /  14.9 °C 39 °F /  3.9 °C 30.1in /  1017.5hPa West 13mph /  20.9km/h 22mph /  35.4km/h 48% 0in /  0.0mm SCT
10:35 59.2 °F /  15.1 °C 39.6 °F /  4.2 °C 30.1in /  1017.5hPa West 13mph /  20.9km/h 21.3mph /  34.3km/h 48% 0in /  0.0mm SCT
10:40 59.4 °F /  15.2 °C 39.7 °F /  4.3 °C 30.1in /  1017.5hPa WSW 12.3mph /  19.8km/h 16.1mph /  25.9km/h 48% 0in /  0.0mm SCT
10:45 59.4 °F /  15.2 °C 40.3 °F /  4.6 °C 30.1in /  1017.5hPa West 12.3mph /  19.8km/h 10.4mph /  16.7km/h 49% 0in /  0.0mm SCT
10:50 59.4 °F /  15.2 °C 40.3 °F /  4.6 °C 30.1in /  1017.5hPa WNW 8.1mph /  13.0km/h 12.7mph /  20.4km/h 49% 0in /  0.0mm SCT
10:55 59.5 °F /  15.3 °C 39.7 °F /  4.3 °C 30.1in /  1017.5hPa WSW 8.1mph /  13.0km/h 16.1mph /  25.9km/h 48% 0in /  0.0mm SCT
11:00 59.5 °F /  15.3 °C 39.7 °F /  4.3 °C 30.1in /  1017.5hPa West 9mph /  14.5km/h 15mph /  24.1km/h 48% 0in /  0.0mm SCT
11:05 59.5 °F /  15.3 °C 39.7 °F /  4.3 °C 30.1in /  1017.5hPa West 8.7mph /  14.0km/h 18.1mph /  29.1km/h 48% 0in /  0.0mm SCT
11:10 59.7 °F /  15.4 °C 39.9 °F /  4.4 °C 30.1in /  1017.5hPa WSW 8.7mph /  14.0km/h 16.1mph /  25.9km/h 48% 0in /  0.0mm SCT
11:15 59.7 °F /  15.4 °C 39.4 °F /  4.1 °C 30.1in /  1017.5hPa WNW 8.7mph /  14.0km/h 23mph /  37.0km/h 47% 0in /  0.0mm SCT
11:20 60.1 °F /  15.6 °C 39.7 °F /  4.3 °C 30in /  1017.4hPa WSW 11.4mph /  18.3km/h 16.1mph /  25.9km/h 47% 0in /  0.0mm SCT
11:25 60.4 °F /  15.8 °C 40.1 °F /  4.5 °C 30in /  1017.4hPa WSW 11.4mph /  18.3km/h 15mph /  24.1km/h 47% 0in /  0.0mm FEW
11:30 61 °F /  16.1 °C 40.6 °F /  4.8 °C 30in /  1017.4hPa WNW 8.7mph /  14.0km/h 10.4mph /  16.7km/h 47% 0in /  0.0mm SCT
11:35 61.2 °F /  16.2 °C 40.8 °F /  4.9 °C 30in /  1017.4hPa WNW 8.7mph /  14.0km/h 12.7mph /  20.4km/h 47% 0in /  0.0mm SCT
11:40 61.3 °F /  16.3 °C 40.5 °F /  4.7 °C 30in /  1017.4hPa NNW 7.6mph /  12.2km/h 18.4mph /  29.6km/h 46% 0in /  0.0mm SCT
11:45 61.3 °F /  16.3 °C 40.5 °F /  4.7 °C 30in /  1017.4hPa NW 7.6mph /  12.2km/h 17.3mph /  27.8km/h 46% 0in /  0.0mm FEW
11:50 61.3 °F /  16.3 °C 40.5 °F /  4.7 °C 30in /  1017.3hPa SW 11.2mph /  18.0km/h 17.3mph /  27.8km/h 46% 0in /  0.0mm FEW
11:55 61.7 °F /  16.5 °C 40.1 °F /  4.5 °C 30in /  1017.3hPa WSW 11.2mph /  18.0km/h 20.7mph /  33.3km/h 45% 0in /  0.0mm FEW
12:00 61.9 °F /  16.6 °C 39.7 °F /  4.3 °C 30in /  1017.3hPa West 10mph /  16.1km/h 24mph /  38.6km/h 44% 0in /  0.0mm FEW
12:05 61.5 °F /  16.4 °C 39.4 °F /  4.1 °C 30in /  1017.4hPa NW 10.7mph /  17.2km/h 23mph /  37.0km/h 44% 0in /  0.0mm FEW
12:09 61.5 °F /  16.4 °C 39.9 °F /  4.4 °C 30in /  1017.4hPa West 13.5mph /  21.7km/h 17.3mph /  27.8km/h 45% 0in /  0.0mm FEW
12:15 62.1 °F /  16.7 °C 40.5 °F /  4.7 °C 30in /  1017.4hPa NW 13.5mph /  21.7km/h 19.6mph /  31.5km/h 45% 0in /  0.0mm SCT
12:20 62.2 °F /  16.8 °C 39.9 °F /  4.4 °C 30in /  1017.3hPa WNW 10.7mph /  17.2km/h 18.4mph /  29.6km/h 44% 0in /  0.0mm FEW
12:25 62.2 °F /  16.8 °C 39.9 °F /  4.4 °C 30in /  1017.3hPa WNW 10.7mph /  17.2km/h 23mph /  37.0km/h 44% 0in /  0.0mm SCT
12:30 62.1 °F /  16.7 °C 39.9 °F /  4.4 °C 30in /  1017.3hPa West 12.5mph /  20.1km/h 20.7mph /  33.3km/h 44% 0in /  0.0mm FEW
12:35 62.2 °F /  16.8 °C 39.9 °F /  4.4 °C 30in /  1017.2hPa West 12.5mph /  20.1km/h 20.7mph /  33.3km/h 44% 0in /  0.0mm SCT
12:40 62.4 °F /  16.9 °C 40.3 °F /  4.6 °C 30in /  1017.2hPa SW 10.7mph /  17.2km/h 16.8mph /  27.0km/h 44% 0in /  0.0mm FEW
12:45 62.4 °F /  16.9 °C 40.3 °F /  4.6 °C 30in /  1017.2hPa WNW 10.7mph /  17.2km/h 17.3mph /  27.8km/h 44% 0in /  0.0mm SCT
12:50 62.1 °F /  16.7 °C 40.5 °F /  4.7 °C 30in /  1017.0hPa WNW 11.8mph /  19.0km/h 15mph /  24.1km/h 45% 0in /  0.0mm FEW
12:55 62.8 °F /  17.1 °C 40.5 °F /  4.7 °C 30in /  1017.0hPa West 11.8mph /  19.0km/h 15mph /  24.1km/h 44% 0in /  0.0mm SCT
13:00 62.8 °F /  17.1 °C 39.9 °F /  4.4 °C 30in /  1017.0hPa West 9mph /  14.5km/h 16mph /  25.7km/h 43% 0in /  0.0mm SCT
13:05 63 °F /  17.2 °C 40.6 °F /  4.8 °C 30in /  1016.7hPa WSW 8.7mph /  14.0km/h 15mph /  24.1km/h 44% 0in /  0.0mm SCT
13:10 63.1 °F /  17.3 °C 39.7 °F /  4.3 °C 30in /  1016.7hPa WSW 10mph /  16.1km/h 10.2mph /  16.4km/h 42% 0in /  0.0mm FEW
13:15 63.3 °F /  17.4 °C 39.7 °F /  4.3 °C 30in /  1016.7hPa West 10mph /  16.1km/h 20.7mph /  33.3km/h 42% 0in /  0.0mm BKN
13:20 63.1 °F /  17.3 °C 39.7 °F /  4.3 °C 30in /  1016.6hPa NNW 10.7mph /  17.2km/h 24.2mph /  38.9km/h 42% 0in /  0.0mm SCT
13:25 63.3 °F /  17.4 °C 39.2 °F /  4.0 °C 30in /  1016.6hPa West 10.7mph /  17.2km/h 20.7mph /  33.3km/h 41% 0in /  0.0mm BKN
13:30 63.7 °F /  17.6 °C 39.6 °F /  4.2 °C 30in /  1016.6hPa WSW 13mph /  20.9km/h 24.2mph /  38.9km/h 41% 0in /  0.0mm SCT
13:35 63.7 °F /  17.6 °C 39.6 °F /  4.2 °C 30in /  1016.7hPa SSW 13mph /  20.9km/h 18.4mph /  29.6km/h 41% 0in /  0.0mm BKN
13:40 63.7 °F /  17.6 °C 39.6 °F /  4.2 °C 30in /  1016.7hPa SW 12.5mph /  20.1km/h 19.6mph /  31.5km/h 41% 0in /  0.0mm SCT
13:45 63.9 °F /  17.7 °C 39 °F /  3.9 °C 30in /  1016.7hPa West 12.5mph /  20.1km/h 18.4mph /  29.6km/h 40% 0in /  0.0mm BKN
13:50 63.7 °F /  17.6 °C 39.6 °F /  4.2 °C 30in /  1016.4hPa SW 11.8mph /  19.0km/h 17.3mph /  27.8km/h 41% 0in /  0.0mm SCT
13:55 63.9 °F /  17.7 °C 39.7 °F /  4.3 °C 30in /  1016.4hPa SW 11.8mph /  19.0km/h 23mph /  37.0km/h 41% 0in /  0.0mm BKN
13:59 63.7 °F /  17.6 °C 38.8 °F /  3.8 °C 30in /  1016.4hPa WSW 12.5mph /  20.1km/h 24.2mph /  38.9km/h 40% 0in /  0.0mm BKN
14:05 63.9 °F /  17.7 °C 39.7 °F /  4.3 °C 30in /  1016.4hPa West 12.5mph /  20.1km/h 17.3mph /  27.8km/h 41% 0in /  0.0mm BKN
14:10 64 °F /  17.8 °C 39.2 °F /  4.0 °C 30in /  1016.4hPa West 11.4mph /  18.3km/h 19.6mph /  31.5km/h 40% 0in /  0.0mm SCT
14:15 63.7 °F /  17.6 °C 39.6 °F /  4.2 °C 30in /  1016.4hPa West 11.4mph /  18.3km/h 22.5mph /  36.2km/h 41% 0in /  0.0mm BKN
14:20 63.7 °F /  17.6 °C 38.8 °F /  3.8 °C 30in /  1016.3hPa WSW 11.2mph /  18.0km/h 21.5mph /  34.6km/h 40% 0in /  0.0mm SCT
14:25 63.7 °F /  17.6 °C 38.8 °F /  3.8 °C 30in /  1016.3hPa WSW 11.2mph /  18.0km/h 20.7mph /  33.3km/h 40% 0in /  0.0mm BKN
14:30 63.9 °F /  17.7 °C 39 °F /  3.9 °C 30in /  1016.3hPa NW 13.5mph /  21.7km/h 14mph /  22.5km/h 40% 0in /  0.0mm SCT
14:34 64 °F /  17.8 °C 39.2 °F /  4.0 °C 30in /  1016.2hPa West 13.5mph /  21.7km/h 19.6mph /  31.5km/h 40% 0in /  0.0mm BKN
14:40 64 °F /  17.8 °C 39.2 °F /  4.0 °C 30in /  1016.2hPa West 11.2mph /  18.0km/h 23mph /  37.0km/h 40% 0in /  0.0mm SCT
14:45 64 °F /  17.8 °C 39.2 °F /  4.0 °C 30in /  1016.2hPa West 11.2mph /  18.0km/h 16.1mph /  25.9km/h 40% 0in /  0.0mm BKN
14:50 64.6 °F /  18.1 °C 39 °F /  3.9 °C 30in /  1016.0hPa WSW 11.4mph /  18.3km/h 21.9mph /  35.2km/h 39% 0in /  0.0mm FEW
14:55 64.8 °F /  18.2 °C 39.2 °F /  4.0 °C 30in /  1016.0hPa West 12mph /  19.3km/h 22mph /  35.4km/h 39% 0in /  0.0mm FEW
15:00 64.8 °F /  18.2 °C 38.5 °F /  3.6 °C 30in /  1016.0hPa West 13mph /  20.9km/h 24mph /  38.6km/h 38% 0in /  0.0mm BKN
15:05 64.4 °F /  18.0 °C 38.8 °F /  3.8 °C 30in /  1016.0hPa West 12.5mph /  20.1km/h 16.1mph /  25.9km/h 39% 0in /  0.0mm BKN
15:10 64.8 °F /  18.2 °C 39.2 °F /  4.0 °C 30in /  1016.0hPa West 12.5mph /  20.1km/h 12.7mph /  20.4km/h 39% 0in /  0.0mm FEW
15:15 65.1 °F /  18.4 °C 38.8 °F /  3.8 °C 30in /  1016.0hPa West 12.5mph /  20.1km/h 23mph /  37.0km/h 38% 0in /  0.0mm SCT
15:20 65.1 °F /  18.4 °C 38.8 °F /  3.8 °C 30in /  1015.8hPa WSW 10mph /  16.1km/h 23mph /  37.0km/h 38% 0in /  0.0mm FEW
15:25 64.9 °F /  18.3 °C 38.7 °F /  3.7 °C 30in /  1015.8hPa WNW 10mph /  16.1km/h 24.2mph /  38.9km/h 38% 0in /  0.0mm SCT
15:30 64.8 °F /  18.2 °C 38.5 °F /  3.6 °C 30in /  1015.8hPa SSW 12.3mph /  19.8km/h 20.7mph /  33.3km/h 38% 0in /  0.0mm FEW
15:35 64.8 °F /  18.2 °C 37.9 °F /  3.3 °C 30in /  1015.7hPa West 12.3mph /  19.8km/h 18.4mph /  29.6km/h 37% 0in /  0.0mm SCT
15:40 64.6 °F /  18.1 °C 37.8 °F /  3.2 °C 30in /  1015.7hPa WSW 12.5mph /  20.1km/h 20.7mph /  33.3km/h 37% 0in /  0.0mm FEW
15:45 64.6 °F /  18.1 °C 38.5 °F /  3.6 °C 30in /  1015.7hPa WSW 12.5mph /  20.1km/h 23mph /  37.0km/h 38% 0in /  0.0mm SCT
15:50 64.6 °F /  18.1 °C 38.5 °F /  3.6 °C 30in /  1015.8hPa WNW 14.5mph /  23.3km/h 16.1mph /  25.9km/h 38% 0in /  0.0mm FEW
15:55 64.6 °F /  18.1 °C 38.5 °F /  3.6 °C 30in /  1015.8hPa West 14.5mph /  23.3km/h 25.3mph /  40.7km/h 38% 0in /  0.0mm SCT
15:59 64.2 °F /  17.9 °C 38.1 °F /  3.4 °C 30in /  1015.8hPa West 13.7mph /  22.0km/h 20.7mph /  33.3km/h 38% 0in /  0.0mm SCT
16:05 64.4 °F /  18.0 °C 38.1 °F /  3.4 °C 30in /  1015.7hPa WSW 13.7mph /  22.0km/h 21.9mph /  35.2km/h 38% 0in /  0.0mm FEW
16:10 64.4 °F /  18.0 °C 38.1 °F /  3.4 °C 30in /  1015.7hPa West 14.7mph /  23.7km/h 18.4mph /  29.6km/h 38% 0in /  0.0mm FEW
16:15 64.2 °F /  17.9 °C 38.1 °F /  3.4 °C 30in /  1015.7hPa West 14.7mph /  23.7km/h 24.2mph /  38.9km/h 38% 0in /  0.0mm SCT
16:20 64.4 °F /  18.0 °C 38.8 °F /  3.8 °C 30in /  1015.8hPa WSW 14.5mph /  23.3km/h 17.3mph /  27.8km/h 39% 0in /  0.0mm FEW
16:25 64.4 °F /  18.0 °C 38.1 °F /  3.4 °C 30in /  1015.8hPa West 14.5mph /  23.3km/h 20.7mph /  33.3km/h 38% 0in /  0.0mm SCT
16:30 64.2 °F /  17.9 °C 38.1 °F /  3.4 °C 30in /  1015.8hPa SW 11.4mph /  18.3km/h 24.2mph /  38.9km/h 38% 0in /  0.0mm FEW
16:35 64.4 °F /  18.0 °C 38.1 °F /  3.4 °C 30in /  1015.8hPa WNW 11.4mph /  18.3km/h 17.3mph /  27.8km/h 38% 0in /  0.0mm SCT
16:40 64.2 °F /  17.9 °C 38.1 °F /  3.4 °C 30in /  1015.8hPa West 11.4mph /  18.3km/h 16.1mph /  25.9km/h 38% 0in /  0.0mm FEW
16:45 64.2 °F /  17.9 °C 38.1 °F /  3.4 °C 30in /  1015.8hPa WSW 11.4mph /  18.3km/h 17.3mph /  27.8km/h 38% 0in /  0.0mm SCT
16:50 64.2 °F /  17.9 °C 38.1 °F /  3.4 °C 30in /  1016.1hPa WSW 10mph /  16.1km/h 15mph /  24.1km/h 38% 0in /  0.0mm FEW
16:55 64 °F /  17.8 °C 38.7 °F /  3.7 °C 30in /  1016.1hPa WSW 10mph /  16.1km/h 12.7mph /  20.4km/h 39% 0in /  0.0mm SCT
16:59 64 °F /  17.8 °C 38.7 °F /  3.7 °C 30in /  1016.1hPa West 9.2mph /  14.8km/h 15mph /  24.1km/h 39% 0in /  0.0mm SCT
17:05 64 °F /  17.8 °C 38.7 °F /  3.7 °C 30in /  1016.0hPa WSW 9.2mph /  14.8km/h 16.1mph /  25.9km/h 39% 0in /  0.0mm SCT
17:10 63.9 °F /  17.7 °C 37.8 °F /  3.2 °C 30in /  1016.0hPa West 9.7mph /  15.6km/h 15mph /  24.1km/h 38% 0in /  0.0mm FEW
17:15 63.7 °F /  17.6 °C 37.6 °F /  3.1 °C 30in /  1016.0hPa WNW 9.7mph /  15.6km/h 20.7mph /  33.3km/h 38% 0in /  0.0mm FEW
17:20 63.7 °F /  17.6 °C 37.6 °F /  3.1 °C 30in /  1016.1hPa WSW 11.4mph /  18.3km/h 16.1mph /  25.9km/h 38% 0in /  0.0mm FEW
17:25 63.3 °F /  17.4 °C 37.2 °F /  2.9 °C 30in /  1016.1hPa West 11.4mph /  18.3km/h 13.8mph /  22.2km/h 38% 0in /  0.0mm FEW
17:30 63.1 °F /  17.3 °C 37 °F /  2.8 °C 30in /  1016.1hPa West 9.7mph /  15.6km/h 15mph /  24.1km/h 38% 0in /  0.0mm FEW
17:35 63.1 °F /  17.3 °C 37 °F /  2.8 °C 30in /  1016.0hPa West 9.7mph /  15.6km/h 15mph /  24.1km/h 38% 0in /  0.0mm FEW
17:40 63 °F /  17.2 °C 37.6 °F /  3.1 °C 30in /  1016.0hPa West 10.2mph /  16.4km/h 13.8mph /  22.2km/h 39% 0in /  0.0mm FEW
17:45 63 °F /  17.2 °C 37.6 °F /  3.1 °C 30in /  1016.0hPa WSW 10.2mph /  16.4km/h 18.4mph /  29.6km/h 39% 0in /  0.0mm FEW
17:50 62.8 °F /  17.1 °C 37.4 °F /  3.0 °C 30in /  1016.0hPa West 11.4mph /  18.3km/h 18.4mph /  29.6km/h 39% 0in /  0.0mm FEW
17:55 62.4 °F /  16.9 °C 37 °F /  2.8 °C 30in /  1016.0hPa WSW 11.4mph /  18.3km/h 16.1mph /  25.9km/h 39% 0in /  0.0mm FEW
17:59 62.4 °F /  16.9 °C 37.8 °F /  3.2 °C 30in /  1016.0hPa West 11.4mph /  18.3km/h 16.1mph /  25.9km/h 40% 0in /  0.0mm FEW
18:05 62.2 °F /  16.8 °C 37.6 °F /  3.1 °C 30in /  1016.5hPa West 11.4mph /  18.3km/h 13.8mph /  22.2km/h 40% 0in /  0.0mm FEW
18:10 62.2 °F /  16.8 °C 37.6 °F /  3.1 °C 30in /  1016.5hPa SSW 8.1mph /  13.0km/h 9.2mph /  14.8km/h 40% 0in /  0.0mm FEW
18:15 62.1 °F /  16.7 °C 37.4 °F /  3.0 °C 30in /  1016.5hPa SSW 8.1mph /  13.0km/h 8.1mph /  13.0km/h 40% 0in /  0.0mm FEW
18:20 62.1 °F /  16.7 °C 37.4 °F /  3.0 °C 30in /  1016.8hPa SSW 6.2mph /  10.0km/h 8.1mph /  13.0km/h 40% 0in /  0.0mm FEW
18:25 62.1 °F /  16.7 °C 37.4 °F /  3.0 °C 30in /  1016.8hPa South 6.2mph /  10.0km/h 8.1mph /  13.0km/h 40% 0in /  0.0mm CLR
18:30 62.1 °F /  16.7 °C 38.1 °F /  3.4 °C 30in /  1016.8hPa WSW 5.2mph /  8.4km/h 8.1mph /  13.0km/h 41% 0in /  0.0mm FEW
18:35 61.9 °F /  16.6 °C 37.9 °F /  3.3 °C 30in /  1017.2hPa SSW 5.2mph /  8.4km/h 9.2mph /  14.8km/h 41% 0in /  0.0mm CLR
18:40 61.9 °F /  16.6 °C 37.9 °F /  3.3 °C 30in /  1017.2hPa SW 5.4mph /  8.7km/h 11.5mph /  18.5km/h 41% 0in /  0.0mm FEW
18:45 61.9 °F /  16.6 °C 37.9 °F /  3.3 °C 30in /  1017.2hPa SSW 5.4mph /  8.7km/h 10.4mph /  16.7km/h 41% 0in /  0.0mm CLR
18:50 61.9 °F /  16.6 °C 37.9 °F /  3.3 °C 30.1in /  1017.5hPa SSW 6.2mph /  10.0km/h 10.4mph /  16.7km/h 41% 0in /  0.0mm CLR
18:55 61.9 °F /  16.6 °C 37.9 °F /  3.3 °C 30.1in /  1017.5hPa SSW 6.2mph /  10.0km/h 8.1mph /  13.0km/h 41% 0in /  0.0mm CLR
18:59 61.9 °F /  16.6 °C 37.9 °F /  3.3 °C 30.1in /  1017.5hPa SW 5.4mph /  8.7km/h 11.5mph /  18.5km/h 41% 0in /  0.0mm CLR
19:05 61.9 °F /  16.6 °C 37.9 °F /  3.3 °C 30.1in /  1017.7hPa SW 5.4mph /  8.7km/h 10.4mph /  16.7km/h 41% 0in /  0.0mm CLR
19:10 61.7 °F /  16.5 °C 37.8 °F /  3.2 °C 30.1in /  1017.7hPa SW 6.9mph /  11.1km/h 13.8mph /  22.2km/h 41% 0in /  0.0mm CLR
19:15 61.9 °F /  16.6 °C 37.9 °F /  3.3 °C 30.1in /  1017.7hPa SW 6.9mph /  11.1km/h 12.7mph /  20.4km/h 41% 0in /  0.0mm CLR
19:20 61.7 °F /  16.5 °C 37.8 °F /  3.2 °C 30.1in /  1017.7hPa WSW 8.7mph /  14.0km/h 12.7mph /  20.4km/h 41% 0in /  0.0mm CLR
19:25 61.5 °F /  16.4 °C 37.6 °F /  3.1 °C 30.1in /  1017.7hPa WSW 8.7mph /  14.0km/h 12.7mph /  20.4km/h 41% 0in /  0.0mm CLR
19:30 61.5 °F /  16.4 °C 37.6 °F /  3.1 °C 30.1in /  1017.7hPa West 8.1mph /  13.0km/h 10.4mph /  16.7km/h 41% 0in /  0.0mm CLR
19:35 61.3 °F /  16.3 °C 37.4 °F /  3.0 °C 30.1in /  1017.8hPa SW 8.1mph /  13.0km/h 8.7mph /  14.0km/h 41% 0in /  0.0mm CLR
19:40 61.3 °F /  16.3 °C 37.4 °F /  3.0 °C 30.1in /  1017.8hPa WSW 6.4mph /  10.3km/h 15mph /  24.1km/h 41% 0in /  0.0mm CLR
19:45 61.3 °F /  16.3 °C 37.4 °F /  3.0 °C 30.1in /  1017.8hPa SW 6.4mph /  10.3km/h 11.5mph /  18.5km/h 41% 0in /  0.0mm CLR
19:50 61.2 °F /  16.2 °C 37.2 °F /  2.9 °C 30.1in /  1018.0hPa WSW 6.9mph /  11.1km/h 11.5mph /  18.5km/h 41% 0in /  0.0mm CLR
19:55 61.2 °F /  16.2 °C 37.9 °F /  3.3 °C 30.1in /  1018.0hPa SW 6.9mph /  11.1km/h 13.8mph /  22.2km/h 42% 0in /  0.0mm CLR
19:59 61 °F /  16.1 °C 37.8 °F /  3.2 °C 30.1in /  1018.0hPa WSW 8.7mph /  14.0km/h 10.4mph /  16.7km/h 42% 0in /  0.0mm CLR
20:05 60.8 °F /  16.0 °C 37.6 °F /  3.1 °C 30.1in /  1018.3hPa SW 8.7mph /  14.0km/h 9.2mph /  14.8km/h 42% 0in /  0.0mm CLR
20:10 60.8 °F /  16.0 °C 38.1 °F /  3.4 °C 30.1in /  1018.3hPa SW 6.2mph /  10.0km/h 10.4mph /  16.7km/h 43% 0in /  0.0mm CLR
20:15 60.6 °F /  15.9 °C 37.9 °F /  3.3 °C 30.1in /  1018.3hPa SSW 6.2mph /  10.0km/h 11.5mph /  18.5km/h 43% 0in /  0.0mm BKN
20:20 60.6 °F /  15.9 °C 37.9 °F /  3.3 °C 30.1in /  1018.1hPa South 5.9mph /  9.5km/h 6.2mph /  10.0km/h 43% 0in /  0.0mm CLR
20:25 60.1 °F /  15.6 °C 38.1 °F /  3.4 °C 30.1in /  1018.1hPa SSW 5.9mph /  9.5km/h 6.9mph /  11.1km/h 44% 0in /  0.0mm BKN
20:30 59.7 °F /  15.4 °C 38.3 °F /  3.5 °C 30.1in /  1018.1hPa SSW 5.2mph /  8.4km/h 5.8mph /  9.3km/h 45% 0in /  0.0mm CLR
20:35 59.4 °F /  15.2 °C 37.9 °F /  3.3 °C 30.1in /  1017.9hPa WNW 5.2mph /  8.4km/h 8.1mph /  13.0km/h 45% 0in /  0.0mm CLR
20:40 59.5 °F /  15.3 °C 38.1 °F /  3.4 °C 30.1in /  1017.9hPa SW 5.2mph /  8.4km/h 11.5mph /  18.5km/h 45% 0in /  0.0mm CLR
20:45 59.5 °F /  15.3 °C 38.1 °F /  3.4 °C 30.1in /  1017.9hPa West 5.2mph /  8.4km/h 9.2mph /  14.8km/h 45% 0in /  0.0mm BKN
20:50 59.5 °F /  15.3 °C 38.1 °F /  3.4 °C 30.1in /  1017.6hPa WSW 6.2mph /  10.0km/h 10.4mph /  16.7km/h 45% 0in /  0.0mm CLR
20:55 59.5 °F /  15.3 °C 37.6 °F /  3.1 °C 30.1in /  1017.6hPa WSW 6.2mph /  10.0km/h 16.1mph /  25.9km/h 44% 0in /  0.0mm BKN
21:00 59.7 °F /  15.4 °C 37.8 °F /  3.2 °C 30.1in /  1017.6hPa WSW 8mph /  12.9km/h 14mph /  22.5km/h 44% 0in /  0.0mm BKN
21:05 59.9 °F /  15.5 °C 37.9 °F /  3.3 °C 30.1in /  1017.7hPa SW 7.6mph /  12.2km/h 12.7mph /  20.4km/h 44% 0in /  0.0mm BKN
21:10 59.9 °F /  15.5 °C 37.9 °F /  3.3 °C 30.1in /  1017.7hPa South 6.9mph /  11.1km/h 8.1mph /  13.0km/h 44% 0in /  0.0mm CLR
21:15 59.7 °F /  15.4 °C 37.8 °F /  3.2 °C 30.1in /  1017.7hPa SSW 6.9mph /  11.1km/h 6.9mph /  11.1km/h 44% 0in /  0.0mm SCT
21:20 59.5 °F /  15.3 °C 37.6 °F /  3.1 °C 30.1in /  1017.7hPa SW 4.7mph /  7.6km/h 9.2mph /  14.8km/h 44% 0in /  0.0mm CLR
21:25 59.5 °F /  15.3 °C 37.6 °F /  3.1 °C 30.1in /  1017.7hPa WSW 4.7mph /  7.6km/h 10.4mph /  16.7km/h 44% 0in /  0.0mm SCT
21:30 59.7 °F /  15.4 °C 37.2 °F /  2.9 °C 30.1in /  1017.7hPa WSW 5.9mph /  9.5km/h 10.4mph /  16.7km/h 43% 0in /  0.0mm CLR
21:35 59.5 °F /  15.3 °C 37.6 °F /  3.1 °C 30.1in /  1017.9hPa SW 5.9mph /  9.5km/h 9.2mph /  14.8km/h 44% 0in /  0.0mm SCT
21:40 59.5 °F /  15.3 °C 37.6 °F /  3.1 °C 30.1in /  1017.9hPa SE 6.2mph /  10.0km/h 9.2mph /  14.8km/h 44% 0in /  0.0mm CLR
21:45 59 °F /  15.0 °C 37.8 °F /  3.2 °C 30.1in /  1017.9hPa SSE 6.2mph /  10.0km/h 6.9mph /  11.1km/h 45% 0in /  0.0mm SCT
21:50 58.5 °F /  14.7 °C 37.8 °F /  3.2 °C 30.1in /  1018.1hPa South 4.7mph /  7.6km/h 8.1mph /  13.0km/h 46% 0in /  0.0mm CLR
21:55 58.5 °F /  14.7 °C 37.8 °F /  3.2 °C 30.1in /  1018.1hPa SSE 4.7mph /  7.6km/h 6.9mph /  11.1km/h 46% 0in /  0.0mm SCT
22:00 58.5 °F /  14.7 °C 37.8 °F /  3.2 °C 30.1in /  1018.1hPa SSE 6mph /  9.7km/h 8mph /  12.9km/h 46% 0in /  0.0mm SCT
22:05 58.8 °F /  14.9 °C 37.6 °F /  3.1 °C 30.1in /  1018.3hPa SSE 5.9mph /  9.5km/h 9.2mph /  14.8km/h 45% 0in /  0.0mm SCT
22:10 59.2 °F /  15.1 °C 37.8 °F /  3.2 °C 30.1in /  1018.3hPa WSW 6.2mph /  10.0km/h 11.5mph /  18.5km/h 45% 0in /  0.0mm CLR
22:15 59.5 °F /  15.3 °C 37.6 °F /  3.1 °C 30.1in /  1018.3hPa SW 6.2mph /  10.0km/h 9.2mph /  14.8km/h 44% 0in /  0.0mm SCT
22:20 59.7 °F /  15.4 °C 37.8 °F /  3.2 °C 30.1in /  1018.3hPa SSW 6.9mph /  11.1km/h 6.9mph /  11.1km/h 44% 0in /  0.0mm CLR
22:25 59.7 °F /  15.4 °C 37.8 °F /  3.2 °C 30.1in /  1018.3hPa SW 6.9mph /  11.1km/h 8.1mph /  13.0km/h 44% 0in /  0.0mm SCT
22:30 59.7 °F /  15.4 °C 37.8 °F /  3.2 °C 30.1in /  1018.3hPa SSW 5.2mph /  8.4km/h 6.9mph /  11.1km/h 44% 0in /  0.0mm CLR
22:35 60.1 °F /  15.6 °C 38.1 °F /  3.4 °C 30.1in /  1018.1hPa SW 5.2mph /  8.4km/h 4.6mph /  7.4km/h 44% 0in /  0.0mm SCT
22:40 60.1 °F /  15.6 °C 38.1 °F /  3.4 °C 30.1in /  1018.1hPa WSW 4.3mph /  6.9km/h 4.6mph /  7.4km/h 44% 0in /  0.0mm CLR
22:45 60.3 °F /  15.7 °C 38.1 °F /  3.4 °C 30.1in /  1018.1hPa SW 4.3mph /  6.9km/h 5.8mph /  9.3km/h 44% 0in /  0.0mm SCT
22:50 60.1 °F /  15.6 °C 38.1 °F /  3.4 °C 30.1in /  1018.2hPa SSE 3.6mph /  5.8km/h 4.6mph /  7.4km/h 44% 0in /  0.0mm CLR
22:55 59.7 °F /  15.4 °C 38.3 °F /  3.5 °C 30.1in /  1018.2hPa SSW 3.6mph /  5.8km/h 4.6mph /  7.4km/h 45% 0in /  0.0mm SCT
23:00 59.7 °F /  15.4 °C 38.3 °F /  3.5 °C 30.1in /  1018.2hPa South 3mph /  4.8km/h 9mph /  14.5km/h 45% 0in /  0.0mm SCT
23:05 59.5 °F /  15.3 °C 38.7 °F /  3.7 °C 30.1in /  1018.1hPa NW 3.1mph /  5.0km/h 4.6mph /  7.4km/h 46% 0in /  0.0mm SCT
23:10 59.4 °F /  15.2 °C 38.7 °F /  3.7 °C 30.1in /  1018.1hPa WNW 3.6mph /  5.8km/h 3.5mph /  5.6km/h 46% 0in /  0.0mm CLR
23:15 59.2 °F /  15.1 °C 38.5 °F /  3.6 °C 30.1in /  1018.1hPa SW 3.6mph /  5.8km/h 5.8mph /  9.3km/h 46% 0in /  0.0mm SCT
23:20 59.2 °F /  15.1 °C 38.8 °F /  3.8 °C 30.1in /  1017.9hPa WSW 3mph /  4.8km/h 5mph /  8.0km/h 47% 0in /  0.0mm CLR
23:25 59 °F /  15.0 °C 38.8 °F /  3.8 °C 30.1in /  1017.9hPa SW 3.1mph /  5.0km/h 4.7mph /  7.6km/h 47% 0in /  0.0mm SCT
23:30 59 °F /  15.0 °C 38.8 °F /  3.8 °C 30.1in /  1017.9hPa SW 1.8mph /  2.9km/h 5.2mph /  8.4km/h 47% 0in /  0.0mm CLR
23:35 59.2 °F /  15.1 °C 38.5 °F /  3.6 °C 30.1in /  1017.9hPa SW 2mph /  3.2km/h 6mph /  9.7km/h 46% 0in /  0.0mm CLR
23:40 59.4 °F /  15.2 °C 38.7 °F /  3.7 °C 30.1in /  1017.9hPa SW 4mph /  6.4km/h 5.8mph /  9.3km/h 46% 0in /  0.0mm CLR
23:45 59.5 °F /  15.3 °C 38.7 °F /  3.7 °C 30.1in /  1017.9hPa WSW 4mph /  6.4km/h 5.8mph /  9.3km/h 46% 0in /  0.0mm SCT
23:50 59.5 °F /  15.3 °C 38.7 °F /  3.7 °C 30.1in /  1018.1hPa SW 4mph /  6.4km/h 8.1mph /  13.0km/h 46% 0in /  0.0mm CLR
23:55 59.5 °F /  15.3 °C 38.1 °F /  3.4 °C 30.1in /  1018.1hPa West 4mph /  6.4km/h 8.1mph /  13.0km/h 45% 0in /  0.0mm SCT
23:59 59.5 °F /  15.3 °C 38.1 °F /  3.4 °C 30.1in /  1018.1hPa SSW 5.2mph /  8.4km/h 7.6mph /  12.2km/h 45% 0in /  0.0mm SCT
Murcia-Puente Tocinos, España
Compliments of Weather Underground - 2.75 mb

La estación de MeteoMurcia.com, publica sus datos en los siguientes proyectos:

Meteoclimatic www.awekas.at

W3Counter
Web Analytics